Terminal Aerodrome Forecast
Issued by NWS Sioux Falls, SD

Home | Current Version | Previous Version | Text Only | Print | Product List | Glossary Off
Versions: 1 2 3 4 5 6 7 8 9 10 11 12 13 14 15 16 17 18 19 20 21 22 23 24 25 26 27 28

000
FTUS43 KFSD 280529
TAFFSD
TAF
KFSD 280529Z 2806/2906 12009KT P6SM SCT010 BKN025
     FM280800 12009KT P6SM BKN009
     FM281000 11009KT 3SM SHRA OVC006
     FM281800 13007KT 5SM -SHRA OVC010
     FM282000 06007KT P6SM -SHRA BKN015
     FM290000 VRB05KT P6SM SCT015 BKN200=

USA.gov is the U.S. government's official web portal to all federal, state and local government web resources and services.